Aérodrome :







RETROUVEZ-NOUS SUR...

 
LOGIN :

S'inscrire | Disclaimer

   EN    FR    IT 

 









Légende :    VFR   VFR Marginal   IFR   IFR Intensif   IFR Très Intensif
Visi : 
Plafond : 
>= 8 km
>= 3000ft
5 à 8 km
1000 à 3000 ft
1500m à 5 km
500 à 1000 ft
800 à 1500m
200 à 500 ft
< 800m
< 200 ft
Symboles :   Orages  Brouillard  Fortes neiges  Fortes précipitations  Vent > 20 kt






- Altitude de l'aérodrome : 565 ft
- Code IATA : STI


MDST - Cibao Int.

DERNIER METAR :
  • 251600Z 12021KT 9999 SCT022 SCT300 30/23 Q1015

METARs EXPIRÉS :
  • 251500Z 14012KT 9999 SCT022 SCT300 30/23 Q1015
  • 251400Z 13007KT 9999 SCT020 SCT300 28/23 Q1016

TAF TAF MDST
Valide du 25 à 12h jusqu'au 26 à 12h UTC


251000Z 2512/2612 00000KT 4000 BR SCT014 BKN300
BECMG 2513/2515 13012KT
FIR MDCS / Amérique du Nord



MET'MAP, la Météo Aéronautique d'un coup d'oeil ! - Copyright ORBIFLY Décembre 2007 - Disclaimer

ORBIFLY MET'MAP TEAM :

Programmation & Développement : Alexandra Zaïnal
Sur une idée originale de : Baudouin d'Aumeries
Assistance à la programmation : Marc-Olivier Méhu
Soutien technique & logistique : Manuel Goepfert

Contact : metmap@orbifly.com




SOURCES & CREDITS :

   NOAA